createdAt,value
2023-04-02T00:02:33.142Z,54.43
2023-04-02T00:05:51.352Z,54.08
2023-04-02T00:08:23.452Z,54.26
2023-04-02T00:10:52.616Z,55.68
2023-04-02T00:13:26.914Z,57.40
2023-04-02T00:15:58.817Z,55.29
2023-04-02T00:18:28.179Z,55.79
2023-04-02T00:21:05.154Z,55.34
2023-04-02T00:23:32.935Z,55.29
2023-04-02T00:26:00.727Z,57.32
2023-04-02T00:28:28.427Z,57.56
2023-04-02T00:31:00.587Z,56.93
2023-04-02T00:33:32.466Z,57.59
2023-04-02T00:36:00.268Z,56.47
2023-04-02T00:38:31.046Z,56.44
2023-04-02T00:41:01.558Z,53.41
2023-04-02T00:43:33.074Z,53.41
2023-04-02T00:46:05.081Z,53.01
2023-04-02T00:48:42.508Z,55.93
2023-04-02T00:51:17.223Z,57.02
2023-04-02T00:53:47.693Z,56.31
2023-04-02T00:56:20.628Z,55.68
2023-04-02T00:58:53.175Z,55.33
2023-04-02T01:01:26.276Z,55.95
2023-04-02T01:03:58.351Z,57.55
2023-04-02T01:06:31.116Z,56.78
2023-04-02T01:09:11.579Z,54.96
2023-04-02T01:12:04.055Z,56.08
2023-04-02T01:14:45.318Z,55.70
2023-04-02T01:17:31.857Z,56.97
2023-04-02T01:20:24.314Z,56.07
2023-04-02T01:22:57.930Z,54.03
2023-04-02T01:25:31.147Z,55.03
2023-04-02T01:28:07.912Z,54.23
2023-04-02T01:30:38.399Z,55.66
2023-04-02T01:33:07.809Z,53.68
2023-04-02T01:35:42.491Z,54.28
2023-04-02T01:38:15.351Z,54.70
2023-04-02T01:40:51.903Z,58.28
2023-04-02T01:43:24.817Z,56.01
2023-04-02T01:45:54.065Z,57.66
2023-04-02T01:48:27.364Z,55.94
2023-04-02T01:50:58.738Z,56.76
2023-04-02T01:53:30.440Z,55.10
2023-04-02T01:56:00.734Z,53.78
2023-04-02T01:58:31.708Z,53.35
2023-04-02T02:01:03.163Z,52.79
2023-04-02T02:03:31.570Z,53.23
2023-04-02T02:06:00.788Z,54.64
2023-04-02T02:08:38.374Z,53.75
2023-04-02T02:11:08.700Z,54.48
2023-04-02T02:13:37.312Z,53.37
2023-04-02T02:16:12.775Z,52.91
2023-04-02T02:18:40.863Z,53.34
2023-04-02T02:21:11.030Z,54.86
2023-04-02T02:23:38.735Z,53.42
2023-04-02T02:26:07.816Z,54.00
2023-04-02T02:28:40.959Z,53.76
2023-04-02T02:31:17.746Z,54.65
2023-04-02T02:33:50.358Z,54.16
2023-04-02T02:36:26.130Z,54.37
2023-04-02T02:38:59.046Z,55.88
2023-04-02T02:41:34.826Z,55.62
2023-04-02T02:44:11.251Z,53.59
2023-04-02T02:46:45.459Z,54.32
2023-04-02T02:49:17.363Z,53.10
2023-04-02T02:51:49.225Z,55.01
2023-04-02T02:54:19.801Z,56.47
2023-04-02T02:56:55.430Z,55.83
2023-04-02T02:59:24.784Z,56.82
2023-04-02T03:01:54.867Z,55.34
2023-04-02T03:04:24.201Z,57.86
2023-04-02T03:06:53.744Z,56.84
2023-04-02T03:09:31.267Z,57.19
2023-04-02T03:12:05.294Z,59.81
2023-04-02T03:14:37.930Z,58.61
2023-04-02T03:17:13.822Z,56.45
2023-04-02T03:19:48.587Z,56.40
2023-04-02T03:22:22.332Z,55.72
2023-04-02T03:24:54.973Z,57.21
2023-04-02T03:27:27.329Z,56.64
2023-04-02T03:30:05.189Z,57.23
2023-04-02T03:32:38.591Z,56.61
2023-04-02T03:35:17.820Z,55.98
2023-04-02T03:37:49.278Z,56.35
2023-04-02T03:40:21.384Z,58.49
2023-04-02T03:42:52.310Z,55.63
2023-04-02T03:45:24.122Z,57.06
2023-04-02T03:47:57.522Z,56.93
2023-04-02T03:50:27.738Z,56.80
2023-04-02T03:52:55.548Z,54.67
2023-04-02T03:55:28.784Z,54.93
2023-04-02T03:58:03.225Z,55.24
2023-04-02T04:00:37.462Z,54.73
2023-04-02T04:03:14.215Z,55.98
2023-04-02T04:05:49.622Z,55.95
2023-04-02T04:08:20.427Z,57.49
2023-04-02T04:10:53.398Z,56.34
2023-04-02T04:13:29.052Z,57.01
2023-04-02T04:16:01.156Z,57.67
2023-04-02T04:18:37.807Z,58.44
2023-04-02T04:21:15.492Z,57.10
2023-04-02T04:23:51.454Z,56.04
2023-04-02T04:26:24.692Z,55.55
2023-04-02T04:28:59.693Z,55.77
2023-04-02T04:31:34.076Z,54.49
2023-04-02T04:34:09.384Z,55.04
2023-04-02T04:36:53.945Z,53.50
2023-04-02T04:39:29.644Z,53.54
2023-04-02T04:42:00.911Z,53.42
2023-04-02T04:44:40.606Z,54.39
2023-04-02T04:47:13.083Z,55.03
2023-04-02T04:49:46.227Z,53.84
2023-04-02T04:52:20.478Z,54.06
2023-04-02T04:54:48.575Z,56.27
2023-04-02T04:57:35.980Z,54.25
2023-04-02T05:00:13.998Z,53.57
2023-04-02T05:02:47.693Z,53.62
2023-04-02T05:05:22.896Z,53.82
2023-04-02T05:07:54.005Z,52.62
2023-04-02T05:10:31.568Z,52.55
2023-04-02T05:13:05.164Z,52.64
2023-04-02T05:15:37.137Z,52.63
2023-04-02T05:18:19.015Z,54.22
2023-04-02T05:20:52.178Z,55.79
2023-04-02T05:23:24.211Z,54.94
2023-04-02T05:25:55.979Z,53.59
2023-04-02T05:28:31.056Z,52.36
2023-04-02T05:31:03.179Z,52.92
2023-04-02T05:33:33.057Z,52.31
2023-04-02T05:36:05.327Z,53.54
2023-04-02T05:38:36.440Z,54.69
2023-04-02T05:41:08.960Z,53.72
2023-04-02T05:43:40.306Z,53.44
2023-04-02T05:46:17.362Z,51.89
2023-04-02T05:48:49.169Z,53.25
2023-04-02T05:51:22.472Z,52.64
2023-04-02T05:53:56.003Z,52.51
2023-04-02T05:56:27.082Z,53.11
2023-04-02T05:59:00.828Z,53.05
2023-04-02T06:01:39.123Z,52.39
2023-04-02T06:04:15.909Z,51.53
2023-04-02T06:06:54.069Z,52.41
2023-04-02T06:09:30.189Z,51.54
2023-04-02T06:12:13.433Z,52.01
2023-04-02T06:14:41.332Z,52.04
2023-04-02T06:17:12.767Z,51.74
2023-04-02T06:19:40.739Z,51.03
2023-04-02T06:22:18.863Z,51.97
2023-04-02T06:24:48.409Z,51.79
2023-04-02T06:27:22.694Z,51.63
2023-04-02T06:29:52.872Z,51.35
2023-04-02T06:32:24.277Z,50.90
2023-04-02T06:34:52.195Z,50.31
2023-04-02T06:37:28.517Z,50.63
2023-04-02T06:39:56.419Z,49.94
2023-04-02T06:42:28.523Z,49.89
2023-04-02T06:44:56.580Z,49.56
2023-04-02T06:47:31.412Z,49.54
2023-04-02T06:50:05.794Z,49.29
2023-04-02T06:52:39.724Z,48.15
2023-04-02T06:55:28.016Z,48.25
2023-04-02T06:57:56.158Z,47.31
2023-04-02T07:00:29.865Z,48.68
2023-04-02T07:03:00.382Z,49.35
2023-04-02T07:05:28.163Z,49.13
2023-04-02T07:07:57.219Z,49.04
2023-04-02T07:10:25.219Z,49.23
2023-04-02T07:12:52.979Z,49.78
2023-04-02T07:15:20.704Z,48.25
2023-04-02T07:17:48.824Z,48.53
2023-04-02T07:20:28.510Z,48.85
2023-04-02T07:22:58.293Z,48.89
2023-04-02T07:25:28.192Z,49.24
2023-04-02T07:27:57.153Z,50.63
2023-04-02T07:30:24.950Z,50.98
2023-04-02T07:32:52.847Z,49.98
2023-04-02T07:35:20.725Z,50.23
2023-04-02T07:37:48.481Z,48.87
2023-04-02T07:40:21.966Z,48.65
2023-04-02T07:42:50.125Z,49.41
2023-04-02T07:45:18.106Z,49.04
2023-04-02T07:47:46.211Z,48.30
2023-04-02T07:50:14.244Z,48.98
2023-04-02T07:52:43.169Z,51.02
2023-04-02T07:55:12.632Z,49.28
2023-04-02T07:57:48.717Z,48.62
2023-04-02T08:00:17.517Z,49.49
2023-04-02T08:02:45.389Z,49.54
2023-04-02T08:05:13.549Z,50.47
2023-04-02T08:07:41.598Z,50.79
2023-04-02T08:10:11.229Z,50.97
2023-04-02T08:12:39.451Z,50.88
2023-04-02T08:15:11.042Z,49.90
2023-04-02T08:17:39.097Z,49.63
2023-04-02T08:20:10.480Z,49.26
2023-04-02T08:22:38.316Z,49.43
2023-04-02T08:25:07.121Z,50.51
2023-04-02T08:27:34.868Z,51.02
2023-04-02T08:30:02.584Z,50.91
2023-04-02T08:32:31.681Z,50.62
2023-04-02T08:34:59.476Z,49.50
2023-04-02T08:37:28.076Z,49.78
2023-04-02T08:39:55.789Z,48.37
2023-04-02T08:42:30.906Z,48.79
2023-04-02T08:45:24.214Z,49.09
2023-04-02T08:47:57.575Z,49.38
2023-04-02T08:50:31.592Z,48.26
2023-04-02T08:52:59.961Z,48.97
2023-04-02T08:55:37.000Z,49.72
2023-04-02T08:58:18.055Z,49.55
2023-04-02T09:00:49.862Z,49.39
2023-04-02T09:03:22.675Z,50.81
2023-04-02T09:05:53.422Z,49.59
2023-04-02T09:08:24.509Z,47.25
2023-04-02T09:10:55.932Z,49.39
2023-04-02T09:13:25.655Z,49.22
2023-04-02T09:15:59.648Z,49.42
2023-04-02T09:18:31.158Z,48.91
2023-04-02T09:20:59.034Z,48.55
2023-04-02T09:23:29.093Z,47.96
2023-04-02T09:26:04.136Z,48.94
2023-04-02T09:28:32.588Z,49.40
2023-04-02T09:31:14.690Z,49.45
2023-04-02T09:33:45.282Z,49.41
2023-04-02T09:36:35.937Z,48.06
2023-04-02T09:39:08.229Z,47.35
2023-04-02T09:41:37.452Z,48.81
2023-04-02T09:44:30.486Z,46.86
2023-04-02T09:47:03.711Z,47.68
2023-04-02T09:49:34.008Z,47.71
2023-04-02T09:52:21.645Z,47.69
2023-04-02T09:55:17.756Z,46.97
2023-04-02T09:57:46.597Z,47.44
2023-04-02T10:00:31.332Z,47.98
2023-04-02T10:03:06.397Z,48.71
2023-04-02T10:08:09.646Z,50.22
2023-04-02T10:10:42.936Z,49.89
2023-04-02T10:13:20.607Z,50.40
2023-04-02T10:15:52.088Z,48.97
2023-04-02T10:18:28.372Z,49.37
2023-04-02T10:21:00.433Z,49.15
2023-04-02T10:23:31.163Z,50.46
2023-04-02T10:26:08.879Z,50.63
2023-04-02T10:28:48.995Z,52.43
2023-04-02T10:31:25.446Z,51.09
2023-04-02T10:34:02.482Z,52.67
2023-04-02T10:36:46.756Z,52.09
2023-04-02T10:39:19.592Z,52.34
2023-04-02T10:41:54.427Z,51.70
2023-04-02T10:44:33.522Z,52.54
2023-04-02T10:47:10.423Z,50.38
2023-04-02T10:49:43.599Z,48.46
2023-04-02T10:52:21.196Z,50.40
2023-04-02T10:54:51.769Z,48.44
2023-04-02T10:57:34.752Z,46.97
2023-04-02T11:00:15.954Z,47.15
2023-04-02T11:02:50.372Z,47.75
2023-04-02T11:05:23.818Z,46.91
2023-04-02T11:08:01.888Z,47.72
2023-04-02T11:10:33.593Z,48.93
2023-04-02T11:13:08.530Z,48.23
2023-04-02T11:15:37.824Z,48.35
2023-04-02T11:18:06.128Z,47.97
2023-04-02T11:21:07.585Z,47.24
2023-04-02T11:23:57.479Z,46.17
2023-04-02T11:26:47.434Z,46.22
2023-04-02T11:29:28.169Z,47.03
2023-04-02T11:32:28.855Z,46.39
2023-04-02T11:35:25.009Z,47.21
2023-04-02T11:37:54.414Z,46.58
2023-04-02T11:40:52.892Z,47.50
2023-04-02T11:43:52.554Z,46.51
2023-04-02T11:46:40.462Z,47.51
2023-04-02T11:49:51.046Z,47.01
2023-04-02T11:52:25.836Z,46.90
2023-04-02T11:55:18.574Z,48.04
2023-04-02T11:58:05.473Z,46.22
2023-04-02T12:01:15.802Z,46.66
2023-04-02T12:04:08.689Z,46.37
2023-04-02T12:06:52.400Z,46.24
2023-04-02T12:09:23.628Z,45.80
2023-04-02T12:11:52.608Z,46.66
2023-04-02T12:14:45.629Z,46.63
2023-04-02T12:17:28.914Z,46.71
2023-04-02T12:19:58.383Z,46.62
2023-04-02T12:22:28.840Z,47.79
2023-04-02T12:25:00.002Z,47.76
2023-04-02T12:27:29.531Z,47.84
2023-04-02T12:30:13.697Z,47.13
2023-04-02T12:32:41.914Z,46.53
2023-04-02T12:35:28.169Z,46.34
2023-04-02T12:37:57.091Z,46.16
2023-04-02T12:40:26.130Z,45.78
2023-04-02T12:42:54.085Z,46.83
2023-04-02T12:45:27.270Z,45.98
2023-04-02T12:47:58.268Z,46.53
2023-04-02T12:50:26.193Z,47.36
2023-04-02T12:52:58.263Z,47.78
2023-04-02T12:55:28.197Z,47.86
2023-04-02T12:57:57.488Z,47.32
2023-04-02T13:00:33.360Z,49.18
2023-04-02T13:03:16.284Z,48.24
2023-04-02T13:05:47.828Z,48.86
2023-04-02T13:08:18.795Z,48.53
2023-04-02T13:10:47.187Z,47.52
2023-04-02T13:13:19.691Z,46.98
2023-04-02T13:16:02.586Z,45.54
2023-04-02T13:18:33.290Z,45.98
2023-04-02T13:21:03.009Z,46.75
2023-04-02T13:23:37.335Z,47.86
2023-04-02T13:26:15.828Z,47.82
2023-04-02T13:28:43.729Z,48.30
2023-04-02T13:31:16.584Z,47.73
2023-04-02T13:33:44.368Z,48.51
2023-04-02T13:36:15.141Z,48.66
2023-04-02T13:38:43.247Z,49.11
2023-04-02T13:41:22.403Z,48.31
2023-04-02T13:43:51.053Z,47.50
2023-04-02T13:46:23.408Z,49.40
2023-04-02T13:48:52.345Z,47.86
2023-04-02T13:51:22.792Z,48.69
2023-04-02T13:53:55.446Z,49.97
2023-04-02T13:56:24.608Z,49.12
2023-04-02T13:58:52.689Z,50.87
2023-04-02T14:01:25.240Z,50.38
2023-04-02T14:03:54.364Z,50.37
2023-04-02T14:06:31.861Z,49.33
2023-04-02T14:09:04.056Z,49.93
2023-04-02T14:11:44.405Z,51.34
2023-04-02T14:14:27.044Z,48.39
2023-04-02T14:17:07.650Z,49.50
2023-04-02T14:19:50.976Z,46.96
2023-04-02T14:22:34.469Z,47.06
2023-04-02T14:25:11.608Z,46.28
2023-04-02T14:27:45.978Z,47.04
2023-04-02T14:30:21.194Z,47.78
2023-04-02T14:32:59.023Z,47.96
2023-04-02T14:35:32.279Z,48.38
2023-04-02T14:38:10.060Z,48.32
2023-04-02T14:40:46.231Z,50.49
2023-04-02T14:43:21.121Z,48.02
2023-04-02T14:45:58.469Z,47.74
2023-04-02T14:48:44.591Z,47.31
2023-04-02T14:51:18.408Z,47.97
2023-04-02T14:53:53.790Z,49.25
2023-04-02T14:56:24.855Z,47.22
2023-04-02T14:59:10.132Z,45.78
2023-04-02T15:01:40.863Z,46.61
2023-04-02T15:04:15.461Z,47.27
2023-04-02T15:06:46.581Z,47.52
2023-04-02T15:09:19.913Z,47.83
2023-04-02T15:11:49.765Z,47.55
2023-04-02T15:14:22.160Z,48.41
2023-04-02T15:16:49.904Z,48.61
2023-04-02T15:19:20.242Z,48.20
2023-04-02T15:22:08.767Z,48.87
2023-04-02T15:24:46.204Z,48.28
2023-04-02T15:27:25.497Z,49.36
2023-04-02T15:30:01.353Z,52.10
2023-04-02T15:32:36.708Z,53.48
2023-04-02T15:35:18.822Z,51.53
2023-04-02T15:37:58.311Z,51.06
2023-04-02T15:40:48.938Z,51.24
2023-04-02T15:43:23.160Z,51.54
2023-04-02T15:45:59.087Z,50.82
2023-04-02T15:49:05.042Z,50.49
2023-04-02T15:52:06.548Z,50.90
2023-04-02T15:54:53.269Z,50.99
2023-04-02T15:57:41.062Z,49.19
2023-04-02T16:00:28.056Z,49.54
2023-04-02T16:03:17.660Z,48.53
2023-04-02T16:05:56.869Z,46.81
2023-04-02T16:08:39.591Z,49.41
2023-04-02T16:11:11.882Z,48.67
2023-04-02T16:13:40.888Z,48.18
2023-04-02T16:16:12.355Z,46.96
2023-04-02T16:18:47.676Z,46.32
2023-04-02T16:21:20.587Z,47.56
2023-04-02T16:23:51.105Z,47.71
2023-04-02T16:26:30.038Z,48.64
2023-04-02T16:29:10.002Z,46.75
2023-04-02T16:31:49.749Z,44.73
2023-04-02T16:34:30.365Z,46.02
2023-04-02T16:37:04.492Z,46.88
2023-04-02T16:39:39.197Z,46.64
2023-04-02T16:42:16.770Z,47.32
2023-04-02T16:44:56.453Z,47.31
2023-04-02T16:47:45.338Z,47.17
2023-04-02T16:50:20.447Z,46.92
2023-04-02T16:52:57.214Z,49.03
2023-04-02T16:55:42.149Z,47.85
2023-04-02T16:58:29.167Z,46.48
2023-04-02T17:01:01.824Z,47.88
2023-04-02T17:03:44.733Z,48.36
2023-04-02T17:06:21.217Z,49.39
2023-04-02T17:08:57.848Z,49.04
2023-04-02T17:11:37.856Z,48.10
2023-04-02T17:14:07.839Z,46.70
2023-04-02T17:16:43.027Z,47.52
2023-04-02T17:19:12.660Z,48.51
2023-04-02T17:21:43.201Z,49.68
2023-04-02T17:24:20.629Z,50.32
2023-04-02T17:26:54.376Z,49.99
2023-04-02T17:29:26.724Z,49.59
2023-04-02T17:32:00.881Z,49.47
2023-04-02T17:34:29.508Z,49.91
2023-04-02T17:37:05.653Z,49.03
2023-04-02T17:39:41.949Z,48.80
2023-04-02T17:42:21.894Z,48.57
2023-04-02T17:45:03.413Z,49.47
2023-04-02T17:47:44.451Z,47.58
2023-04-02T17:50:38.315Z,47.98
2023-04-02T17:53:19.122Z,48.57
2023-04-02T17:56:00.693Z,49.80
2023-04-02T17:58:48.067Z,48.81
2023-04-02T18:01:23.288Z,47.91
2023-04-02T18:04:05.689Z,49.85
2023-04-02T18:06:40.555Z,48.46
2023-04-02T18:09:25.145Z,48.97
2023-04-02T18:12:03.977Z,47.88
2023-04-02T18:14:47.448Z,48.58
2023-04-02T18:17:22.260Z,48.00
2023-04-02T18:19:55.125Z,46.95
2023-04-02T18:22:31.611Z,48.33
2023-04-02T18:25:33.692Z,47.37
2023-04-02T18:28:16.955Z,48.03
2023-04-02T18:30:51.175Z,49.51
2023-04-02T18:33:30.356Z,50.35
2023-04-02T18:36:06.249Z,49.83
2023-04-02T18:38:43.470Z,49.57
2023-04-02T18:41:27.828Z,51.06
2023-04-02T18:44:08.786Z,50.07
2023-04-02T18:46:44.480Z,50.07
2023-04-02T18:49:33.712Z,50.57
2023-04-02T18:52:03.384Z,49.80
2023-04-02T18:54:35.606Z,48.38
2023-04-02T18:57:12.364Z,49.56
2023-04-02T18:59:45.799Z,49.53
2023-04-02T19:02:32.647Z,49.42
2023-04-02T19:05:04.987Z,48.96
2023-04-02T19:07:36.639Z,50.46
2023-04-02T19:10:14.882Z,51.00
2023-04-02T19:12:42.580Z,49.88
2023-04-02T19:15:17.329Z,48.30
2023-04-02T19:17:54.633Z,47.54
2023-04-02T19:20:34.555Z,48.86
2023-04-02T19:23:14.975Z,51.68
2023-04-02T19:25:58.781Z,52.01
2023-04-02T19:28:32.477Z,50.22
2023-04-02T19:31:15.588Z,49.87
2023-04-02T19:33:50.360Z,51.14
2023-04-02T19:36:44.407Z,51.20
2023-04-02T19:39:35.882Z,50.18
2023-04-02T19:42:12.993Z,49.53
2023-04-02T19:44:45.739Z,50.37
2023-04-02T19:47:14.475Z,50.37
2023-04-02T19:49:43.646Z,50.08
2023-04-02T19:52:11.454Z,50.34
2023-04-02T19:54:39.664Z,49.04
2023-04-02T19:57:07.512Z,49.01
2023-04-02T19:59:35.608Z,50.55
2023-04-02T20:02:06.612Z,48.16
2023-04-02T20:04:34.533Z,48.56
2023-04-02T20:07:03.733Z,47.97
2023-04-02T20:09:31.588Z,49.69
2023-04-02T20:11:59.606Z,49.52
2023-04-02T20:14:27.329Z,51.13
2023-04-02T20:16:55.134Z,50.08
2023-04-02T20:19:25.283Z,48.54
2023-04-02T20:21:53.066Z,47.71
2023-04-02T20:24:22.136Z,47.84
2023-04-02T20:26:49.827Z,48.48
2023-04-02T20:29:17.574Z,47.04
2023-04-02T20:31:45.406Z,47.15
2023-04-02T20:34:13.411Z,47.71
2023-04-02T20:36:41.617Z,47.61
2023-04-02T20:39:10.688Z,47.03
2023-04-02T20:41:39.769Z,47.97
2023-04-02T20:44:07.551Z,47.44
2023-04-02T20:46:35.291Z,48.73
2023-04-02T20:49:03.187Z,46.77
2023-04-02T20:51:31.001Z,47.28
2023-04-02T20:53:58.952Z,46.53
2023-04-02T20:56:26.801Z,45.80
2023-04-02T20:58:55.993Z,46.21
2023-04-02T21:01:25.214Z,46.95
2023-04-02T21:03:56.797Z,46.65
2023-04-02T21:06:26.587Z,47.39
2023-04-02T21:08:54.767Z,46.23
2023-04-02T21:11:23.129Z,45.71
2023-04-02T21:13:51.759Z,46.73
2023-04-02T21:16:22.534Z,46.16
2023-04-02T21:18:52.757Z,46.68
2023-04-02T21:21:21.617Z,47.01
2023-04-02T21:23:54.591Z,46.72
2023-04-02T21:26:22.510Z,47.42
2023-04-02T21:28:50.365Z,46.25
2023-04-02T21:31:21.143Z,45.99
2023-04-02T21:33:50.845Z,46.06
2023-04-02T21:36:20.686Z,46.77
2023-04-02T21:38:50.566Z,46.67
2023-04-02T21:41:21.302Z,47.42
2023-04-02T21:43:49.647Z,47.27
2023-04-02T21:46:18.351Z,47.92
2023-04-02T21:48:48.256Z,46.89
2023-04-02T21:51:18.088Z,47.03
2023-04-02T21:53:46.659Z,46.82
2023-04-02T21:56:16.621Z,47.01
2023-04-02T21:58:45.002Z,47.34
2023-04-02T22:01:26.064Z,48.51
2023-04-02T22:03:56.954Z,47.57
2023-04-02T22:06:26.325Z,47.47
2023-04-02T22:08:56.192Z,47.05
2023-04-02T22:11:25.991Z,47.00
2023-04-02T22:13:53.981Z,46.48
2023-04-02T22:16:23.417Z,47.29
2023-04-02T22:18:53.119Z,46.00
2023-04-02T22:21:22.739Z,46.14
2023-04-02T22:23:51.165Z,46.37
2023-04-02T22:26:20.833Z,46.33
2023-04-02T22:28:48.759Z,46.07
2023-04-02T22:31:19.000Z,46.55
2023-04-02T22:33:48.096Z,46.45
2023-04-02T22:36:17.442Z,46.75
2023-04-02T22:38:46.965Z,46.54
2023-04-02T22:41:16.203Z,46.29
2023-04-02T22:43:45.518Z,46.35
2023-04-02T22:46:15.367Z,46.18
2023-04-02T22:48:43.864Z,46.00
2023-04-02T22:51:14.117Z,46.62
2023-04-02T22:53:43.045Z,46.46
2023-04-02T22:56:14.477Z,47.27
2023-04-02T22:58:42.735Z,46.48
2023-04-02T23:01:14.835Z,46.58
2023-04-02T23:03:42.619Z,47.06
2023-04-02T23:06:12.982Z,47.16
2023-04-02T23:08:40.978Z,46.92
2023-04-02T23:11:11.124Z,47.71
2023-04-02T23:13:40.864Z,47.36
2023-04-02T23:16:11.791Z,46.52
2023-04-02T23:18:40.702Z,47.41
2023-04-02T23:21:09.042Z,47.54
2023-04-02T23:23:36.948Z,47.78
2023-04-02T23:26:07.063Z,48.52
2023-04-02T23:28:35.979Z,48.48
2023-04-02T23:31:06.900Z,49.16
2023-04-02T23:33:34.989Z,48.70
2023-04-02T23:36:09.031Z,48.46
2023-04-02T23:38:37.122Z,48.87
2023-04-02T23:41:04.912Z,49.83
2023-04-02T23:43:32.733Z,50.27
2023-04-02T23:46:00.484Z,49.82
2023-04-02T23:48:29.633Z,50.37
2023-04-02T23:50:57.351Z,49.00
2023-04-02T23:53:25.290Z,48.30
2023-04-02T23:55:53.065Z,49.92
2023-04-02T23:58:20.896Z,49.85
